createdAt,value
2022-11-15T00:00:56.435Z,10.10
2022-11-15T00:03:28.872Z,10.20
2022-11-15T00:05:55.855Z,10.20
2022-11-15T00:08:22.737Z,10.20
2022-11-15T00:10:56.881Z,10.20
2022-11-15T00:13:24.153Z,10.20
2022-11-15T00:15:50.918Z,10.20
2022-11-15T00:18:17.814Z,10.20
2022-11-15T00:20:45.327Z,10.20
2022-11-15T00:23:12.177Z,10.20
2022-11-15T00:25:38.762Z,10.20
2022-11-15T00:28:05.741Z,10.20
2022-11-15T00:30:32.378Z,10.20
2022-11-15T00:33:03.594Z,10.20
2022-11-15T00:35:35.611Z,10.30
2022-11-15T00:38:03.444Z,10.30
2022-11-15T00:40:30.489Z,10.20
2022-11-15T00:42:57.628Z,10.20
2022-11-15T00:45:25.290Z,10.30
2022-11-15T00:47:52.278Z,10.30
2022-11-15T00:50:19.833Z,10.30
2022-11-15T00:52:46.529Z,10.30
2022-11-15T00:55:20.474Z,10.30
2022-11-15T00:57:47.690Z,10.30
2022-11-15T01:00:15.021Z,10.30
2022-11-15T01:02:41.798Z,10.30
2022-11-15T01:05:09.413Z,10.40
2022-11-15T01:07:36.505Z,10.40
2022-11-15T01:10:04.243Z,10.40
2022-11-15T01:12:30.994Z,10.40
2022-11-15T01:14:57.645Z,10.40
2022-11-15T01:17:24.744Z,10.40
2022-11-15T01:19:51.545Z,10.40
2022-11-15T01:22:18.320Z,10.40
2022-11-15T01:24:44.930Z,10.50
2022-11-15T01:27:11.721Z,10.40
2022-11-15T01:29:38.347Z,10.50
2022-11-15T01:32:05.317Z,10.40
2022-11-15T01:34:31.948Z,10.50
2022-11-15T01:36:58.795Z,10.50
2022-11-15T01:39:25.997Z,10.50
2022-11-15T01:41:52.990Z,10.50
2022-11-15T01:44:34.876Z,10.50
2022-11-15T01:47:39.216Z,10.60
2022-11-15T01:50:14.335Z,10.50
2022-11-15T01:52:42.020Z,10.60
2022-11-15T01:55:28.666Z,10.50
2022-11-15T01:58:00.494Z,10.60
2022-11-15T02:00:27.317Z,10.60
2022-11-15T02:02:54.283Z,10.60
2022-11-15T02:05:21.004Z,10.60
2022-11-15T02:07:49.088Z,10.60
2022-11-15T02:10:20.527Z,10.60
2022-11-15T02:12:48.402Z,10.60
2022-11-15T02:15:15.326Z,10.60
2022-11-15T02:17:55.403Z,10.60
2022-11-15T02:20:35.361Z,10.70
2022-11-15T02:23:39.766Z,10.70
2022-11-15T02:26:31.565Z,10.70
2022-11-15T02:29:12.067Z,10.70
2022-11-15T02:32:16.321Z,10.70
2022-11-15T02:34:55.999Z,10.70
2022-11-15T02:37:25.758Z,10.70
2022-11-15T02:40:13.367Z,10.80
2022-11-15T02:43:08.657Z,10.80
2022-11-15T02:45:45.843Z,10.80
2022-11-15T02:48:13.702Z,10.80
2022-11-15T02:50:40.788Z,10.90
2022-11-15T02:53:10.254Z,10.90
2022-11-15T02:55:42.112Z,10.90
2022-11-15T02:58:48.982Z,10.90
2022-11-15T03:01:29.995Z,10.90
2022-11-15T03:04:31.001Z,10.90
2022-11-15T03:07:20.068Z,11.00
2022-11-15T03:09:59.094Z,11.00
2022-11-15T03:12:43.176Z,11.10
2022-11-15T03:15:23.355Z,11.00
2022-11-15T03:18:05.818Z,11.10
2022-11-15T03:20:34.074Z,11.10
2022-11-15T03:23:06.104Z,11.10
2022-11-15T03:25:37.565Z,11.10
2022-11-15T03:28:07.871Z,11.20
2022-11-15T03:30:38.023Z,11.10
2022-11-15T03:33:05.890Z,11.20
2022-11-15T03:35:38.266Z,11.20
2022-11-15T03:38:12.730Z,11.20
2022-11-15T03:40:50.318Z,11.20
2022-11-15T03:43:45.364Z,11.20
2022-11-15T03:46:26.079Z,11.20
2022-11-15T03:49:09.050Z,11.30
2022-11-15T03:51:36.359Z,11.30
2022-11-15T03:54:05.364Z,11.30
2022-11-15T03:56:32.149Z,11.30
2022-11-15T03:58:59.431Z,11.30
2022-11-15T04:01:26.313Z,11.40
2022-11-15T04:03:53.049Z,11.40
2022-11-15T04:06:19.820Z,11.40
2022-11-15T04:08:46.403Z,11.40
2022-11-15T04:11:12.991Z,11.40
2022-11-15T04:13:39.558Z,11.50
2022-11-15T04:16:06.353Z,11.40
2022-11-15T04:18:33.148Z,11.50
2022-11-15T04:21:18.382Z,11.50
2022-11-15T04:24:07.724Z,11.50
2022-11-15T04:26:34.826Z,11.60
2022-11-15T04:29:20.360Z,11.50
2022-11-15T04:31:47.151Z,11.60
2022-11-15T04:34:13.815Z,11.60
2022-11-15T04:36:59.311Z,11.60
2022-11-15T04:39:25.984Z,11.60
2022-11-15T04:41:52.771Z,11.60
2022-11-15T04:44:19.536Z,11.60
2022-11-15T04:46:46.267Z,11.60
2022-11-15T04:49:12.876Z,11.60
2022-11-15T04:51:39.458Z,11.60
2022-11-15T04:54:06.154Z,11.60
2022-11-15T04:56:32.755Z,11.60
2022-11-15T04:58:59.512Z,11.60
2022-11-15T05:01:26.380Z,11.60
2022-11-15T05:04:12.015Z,11.60
2022-11-15T05:06:38.627Z,11.60
2022-11-15T05:09:05.739Z,11.60
2022-11-15T05:11:32.403Z,11.60
2022-11-15T05:13:59.003Z,11.60
2022-11-15T05:16:25.764Z,11.60
2022-11-15T05:18:53.819Z,11.50
2022-11-15T05:21:20.962Z,11.60
2022-11-15T05:23:47.709Z,11.60
2022-11-15T05:26:16.714Z,11.60
2022-11-15T05:28:43.523Z,11.60
2022-11-15T05:31:17.360Z,11.60
2022-11-15T05:33:45.260Z,11.60
2022-11-15T05:36:23.554Z,11.60
2022-11-15T05:38:51.379Z,11.60
2022-11-15T05:41:27.701Z,11.60
2022-11-15T05:43:54.975Z,11.60
2022-11-15T05:46:21.675Z,11.60
2022-11-15T05:48:51.710Z,11.60
2022-11-15T05:51:20.489Z,11.60
2022-11-15T05:53:47.540Z,11.60
2022-11-15T05:56:15.182Z,11.60
2022-11-15T05:58:42.935Z,11.60
2022-11-15T06:01:10.004Z,11.70
2022-11-15T06:03:36.595Z,11.60
2022-11-15T06:06:03.408Z,11.60
2022-11-15T06:08:30.132Z,11.60
2022-11-15T06:10:56.747Z,11.70
2022-11-15T06:13:23.385Z,11.70
2022-11-15T06:15:50.103Z,11.60
2022-11-15T06:18:16.685Z,11.60
2022-11-15T06:20:43.309Z,11.70
2022-11-15T06:23:09.889Z,11.70
2022-11-15T06:25:36.536Z,11.60
2022-11-15T06:28:03.293Z,11.60
2022-11-15T06:30:31.486Z,11.60
2022-11-15T06:33:02.847Z,11.60
2022-11-15T06:35:30.893Z,11.60
2022-11-15T06:38:02.521Z,11.60
2022-11-15T06:40:29.130Z,11.60
2022-11-15T06:43:00.273Z,11.60
2022-11-15T06:45:27.552Z,11.60
2022-11-15T06:47:54.555Z,11.50
2022-11-15T06:50:21.286Z,11.50
2022-11-15T06:52:48.194Z,11.50
2022-11-15T06:55:15.200Z,11.40
2022-11-15T06:57:49.518Z,11.40
2022-11-15T07:00:17.534Z,11.40
2022-11-15T07:02:44.495Z,11.40
2022-11-15T07:05:11.838Z,11.40
2022-11-15T07:07:38.595Z,11.30
2022-11-15T07:10:05.747Z,11.30
2022-11-15T07:12:32.360Z,11.30
2022-11-15T07:14:59.074Z,11.30
2022-11-15T07:17:25.784Z,11.30
2022-11-15T07:19:52.412Z,11.30
2022-11-15T07:22:19.131Z,11.30
2022-11-15T07:24:45.733Z,11.20
2022-11-15T07:27:12.446Z,11.20
2022-11-15T07:29:39.339Z,11.30
2022-11-15T07:32:05.947Z,11.20
2022-11-15T07:34:32.724Z,11.20
2022-11-15T07:36:59.329Z,11.20
2022-11-15T07:39:26.024Z,11.20
2022-11-15T07:42:12.919Z,11.20
2022-11-15T07:44:39.562Z,11.20
2022-11-15T07:47:06.132Z,11.20
2022-11-15T07:49:32.820Z,11.20
2022-11-15T07:51:59.432Z,11.20
2022-11-15T07:54:26.032Z,11.20
2022-11-15T07:56:52.725Z,11.20
2022-11-15T07:59:20.579Z,11.20
2022-11-15T08:01:47.297Z,11.20
2022-11-15T08:04:14.128Z,11.20
2022-11-15T08:06:40.746Z,11.20
2022-11-15T08:09:07.535Z,11.20
2022-11-15T08:11:34.114Z,11.20
2022-11-15T08:14:00.914Z,11.20
2022-11-15T08:16:27.550Z,11.20
2022-11-15T08:18:54.293Z,11.20
2022-11-15T08:21:21.899Z,11.20
2022-11-15T08:23:48.590Z,11.20
2022-11-15T08:26:15.630Z,11.30
2022-11-15T08:28:42.829Z,11.30
2022-11-15T08:31:18.656Z,11.30
2022-11-15T08:33:45.643Z,11.30
2022-11-15T08:36:17.051Z,11.30
2022-11-15T08:38:44.156Z,11.40
2022-11-15T08:41:27.796Z,11.30
2022-11-15T08:43:54.430Z,11.40
2022-11-15T08:46:21.041Z,11.40
2022-11-15T08:48:47.772Z,11.40
2022-11-15T08:51:14.415Z,11.40
2022-11-15T08:53:41.504Z,11.50
2022-11-15T08:56:10.237Z,11.50
2022-11-15T08:58:37.400Z,11.50
2022-11-15T09:01:05.386Z,11.50
2022-11-15T09:03:32.421Z,11.50
2022-11-15T09:06:00.731Z,11.50
2022-11-15T09:08:48.189Z,11.60
2022-11-15T09:11:21.238Z,11.60
2022-11-15T09:13:48.052Z,11.60
2022-11-15T09:16:16.167Z,11.70
2022-11-15T09:18:43.119Z,11.70
2022-11-15T09:21:10.357Z,11.70
2022-11-15T09:23:37.121Z,11.70
2022-11-15T09:26:05.453Z,11.80
2022-11-15T09:28:34.357Z,11.80
2022-11-15T09:31:02.831Z,11.90
2022-11-15T09:33:30.032Z,11.90
2022-11-15T09:36:08.969Z,11.90
2022-11-15T09:38:36.070Z,12.00
2022-11-15T09:41:14.916Z,12.10
2022-11-15T09:44:03.394Z,12.10
2022-11-15T09:46:56.176Z,12.20
2022-11-15T09:49:23.819Z,12.20
2022-11-15T09:51:53.658Z,12.30
2022-11-15T09:54:52.914Z,12.40
2022-11-15T09:57:34.201Z,12.40
2022-11-15T10:00:47.089Z,12.60
2022-11-15T10:03:24.300Z,12.60
2022-11-15T10:05:55.148Z,12.70
2022-11-15T10:08:46.287Z,12.70
2022-11-15T10:11:38.692Z,12.80
2022-11-15T10:14:19.803Z,12.90
2022-11-15T10:17:01.035Z,13.10
2022-11-15T10:19:30.580Z,13.10
2022-11-15T10:22:25.684Z,13.20
2022-11-15T10:25:01.365Z,13.30
2022-11-15T10:27:27.996Z,13.40
2022-11-15T10:29:54.654Z,13.50
2022-11-15T10:32:22.222Z,13.60
2022-11-15T10:34:50.502Z,13.60
2022-11-15T10:37:30.058Z,13.70
2022-11-15T10:40:15.279Z,13.80
2022-11-15T10:42:42.211Z,13.80
2022-11-15T10:45:33.815Z,13.90
2022-11-15T10:48:27.561Z,14.00
2022-11-15T10:50:56.054Z,14.10
2022-11-15T10:53:25.270Z,14.10
2022-11-15T10:56:00.956Z,14.20
2022-11-15T10:58:37.568Z,14.30
2022-11-15T11:01:18.068Z,14.40
2022-11-15T11:03:58.326Z,14.60
2022-11-15T11:06:24.967Z,14.60
2022-11-15T11:09:00.713Z,14.70
2022-11-15T11:11:50.302Z,14.80
2022-11-15T11:14:24.344Z,14.90
2022-11-15T11:16:56.115Z,15.00
2022-11-15T11:20:00.650Z,15.10
2022-11-15T11:22:48.589Z,15.10
2022-11-15T11:25:41.026Z,15.20
2022-11-15T11:28:26.138Z,15.20
2022-11-15T11:30:52.693Z,15.20
2022-11-15T11:33:32.521Z,15.20
2022-11-15T11:36:18.262Z,15.30
2022-11-15T11:38:44.988Z,15.30
2022-11-15T11:41:43.838Z,15.30
2022-11-15T11:45:08.251Z,15.30
2022-11-15T11:47:47.462Z,15.40
2022-11-15T11:50:21.426Z,15.40
2022-11-15T11:52:53.820Z,15.50
2022-11-15T11:55:42.389Z,15.50
2022-11-15T11:58:34.812Z,15.60
2022-11-15T12:01:39.881Z,15.60
2022-11-15T12:04:20.867Z,15.70
2022-11-15T12:07:25.183Z,15.70
2022-11-15T12:10:16.323Z,15.80
2022-11-15T12:12:50.759Z,15.80
2022-11-15T12:15:23.068Z,15.80
2022-11-15T12:17:49.860Z,15.90
2022-11-15T12:20:38.718Z,15.90
2022-11-15T12:23:29.830Z,16.00
2022-11-15T12:26:11.178Z,16.10
2022-11-15T12:29:06.419Z,16.10
2022-11-15T12:31:49.994Z,16.10
2022-11-15T12:34:22.550Z,16.10
2022-11-15T12:36:51.390Z,16.20
2022-11-15T12:39:18.963Z,16.20
2022-11-15T12:42:06.016Z,16.20
2022-11-15T12:44:32.558Z,16.20
2022-11-15T12:47:00.738Z,16.20
2022-11-15T12:49:27.258Z,16.20
2022-11-15T12:51:59.905Z,16.20
2022-11-15T12:54:28.105Z,16.20
2022-11-15T12:57:20.962Z,16.20
2022-11-15T12:59:59.724Z,16.20
2022-11-15T13:02:46.350Z,16.20
2022-11-15T13:05:16.082Z,16.20
2022-11-15T13:07:42.784Z,16.10
2022-11-15T13:10:26.581Z,16.10
2022-11-15T13:12:57.011Z,16.10
2022-11-15T13:15:42.802Z,16.00
2022-11-15T13:18:36.247Z,16.00
2022-11-15T13:21:25.804Z,15.90
2022-11-15T13:23:54.612Z,15.90
2022-11-15T13:26:22.752Z,15.80
2022-11-15T13:28:52.800Z,15.80
2022-11-15T13:31:51.962Z,15.70
2022-11-15T13:37:20.803Z,15.70
2022-11-15T13:39:48.779Z,15.60
2022-11-15T13:42:20.527Z,15.60
2022-11-15T13:44:59.150Z,15.60
2022-11-15T13:47:30.062Z,15.50
2022-11-15T13:50:01.828Z,15.50
2022-11-15T13:52:37.576Z,15.50
2022-11-15T13:55:12.046Z,15.40
2022-11-15T13:57:44.121Z,15.40
2022-11-15T14:00:44.332Z,15.30
2022-11-15T14:03:31.820Z,15.30
2022-11-15T14:06:17.051Z,15.30
2022-11-15T14:09:03.812Z,15.20
2022-11-15T14:11:31.396Z,15.20
2022-11-15T14:14:16.675Z,15.20
2022-11-15T14:16:46.683Z,15.20
2022-11-15T14:19:35.178Z,15.10
2022-11-15T14:22:15.813Z,15.10
2022-11-15T14:24:45.427Z,15.00
2022-11-15T14:27:18.323Z,15.00
2022-11-15T14:29:45.000Z,15.00
2022-11-15T14:32:23.934Z,15.00
2022-11-15T14:34:59.205Z,15.00
2022-11-15T14:37:29.150Z,14.90
2022-11-15T14:39:56.334Z,14.90
2022-11-15T14:42:23.984Z,14.90
2022-11-15T14:44:51.367Z,14.90
2022-11-15T14:47:18.544Z,14.80
2022-11-15T14:49:45.694Z,14.80
2022-11-15T14:52:33.001Z,14.80
2022-11-15T14:55:00.763Z,14.80
2022-11-15T14:57:27.639Z,14.70
2022-11-15T14:59:54.449Z,14.70
2022-11-15T15:02:24.139Z,14.70
2022-11-15T15:04:51.975Z,14.70
2022-11-15T15:07:19.413Z,14.70
2022-11-15T15:09:46.777Z,14.60
2022-11-15T15:12:21.746Z,14.60
2022-11-15T15:14:50.221Z,14.60
2022-11-15T15:17:17.822Z,14.60
2022-11-15T15:19:44.610Z,14.60
2022-11-15T15:22:19.183Z,14.50
2022-11-15T15:24:47.019Z,14.50
2022-11-15T15:27:13.963Z,14.50
2022-11-15T15:29:40.848Z,14.50
2022-11-15T15:32:07.616Z,14.50
2022-11-15T15:34:35.099Z,14.40
2022-11-15T15:37:27.002Z,14.40
2022-11-15T15:39:55.956Z,14.40
2022-11-15T15:42:23.790Z,14.40
2022-11-15T15:44:51.238Z,14.40
2022-11-15T15:47:22.403Z,14.30
2022-11-15T15:49:50.406Z,14.30
2022-11-15T15:52:17.882Z,14.30
2022-11-15T15:54:44.770Z,14.20
2022-11-15T15:57:13.947Z,14.20
2022-11-15T15:59:41.092Z,14.20
2022-11-15T16:02:09.931Z,14.20
2022-11-15T16:04:36.651Z,14.20
2022-11-15T16:07:04.844Z,14.20
2022-11-15T16:09:50.180Z,14.20
2022-11-15T16:12:17.718Z,14.20
2022-11-15T16:14:44.473Z,14.10
2022-11-15T16:17:21.259Z,14.10
2022-11-15T16:19:47.882Z,14.10
2022-11-15T16:22:14.623Z,14.10
2022-11-15T16:24:41.311Z,14.10
2022-11-15T16:27:17.920Z,14.10
2022-11-15T16:29:45.126Z,14.10
2022-11-15T16:32:12.092Z,14.10
2022-11-15T16:34:41.869Z,14.00
2022-11-15T16:37:36.921Z,14.00
2022-11-15T16:40:03.835Z,14.00
2022-11-15T16:42:30.495Z,14.00
2022-11-15T16:44:57.065Z,14.00
2022-11-15T16:47:23.607Z,13.90
2022-11-15T16:49:50.246Z,13.90
2022-11-15T16:52:21.150Z,13.90
2022-11-15T16:54:48.155Z,13.90
2022-11-15T16:57:14.746Z,13.90
2022-11-15T16:59:41.392Z,13.90
2022-11-15T17:02:13.088Z,13.90
2022-11-15T17:04:40.256Z,13.80
2022-11-15T17:07:07.050Z,13.80
2022-11-15T17:09:35.800Z,13.80
2022-11-15T17:12:02.462Z,13.80
2022-11-15T17:14:29.107Z,13.80
2022-11-15T17:16:55.724Z,13.80
2022-11-15T17:19:22.457Z,13.70
2022-11-15T17:21:49.587Z,13.80
2022-11-15T17:24:17.257Z,13.70
2022-11-15T17:26:43.917Z,13.70
2022-11-15T17:29:10.681Z,13.70
2022-11-15T17:31:37.836Z,13.70
2022-11-15T17:34:06.021Z,13.70
2022-11-15T17:36:33.759Z,13.70
2022-11-15T17:39:00.589Z,13.70
2022-11-15T17:41:28.492Z,13.70
2022-11-15T17:43:59.795Z,13.70
2022-11-15T17:46:27.851Z,13.70
2022-11-15T17:48:55.625Z,13.60
2022-11-15T17:51:23.917Z,13.60
2022-11-15T17:53:51.397Z,13.70
2022-11-15T17:56:20.202Z,13.60
2022-11-15T17:58:51.950Z,13.60
2022-11-15T18:01:21.513Z,13.60
2022-11-15T18:03:48.519Z,13.60
2022-11-15T18:06:15.731Z,13.60
2022-11-15T18:08:43.945Z,13.50
2022-11-15T18:11:15.912Z,13.50
2022-11-15T18:13:50.899Z,13.50
2022-11-15T18:16:20.936Z,13.50
2022-11-15T18:18:47.817Z,13.50
2022-11-15T18:21:16.829Z,13.50
2022-11-15T18:23:44.168Z,13.50
2022-11-15T18:26:14.841Z,13.50
2022-11-15T18:28:46.868Z,13.50
2022-11-15T18:31:15.991Z,13.50
2022-11-15T18:33:43.349Z,13.50
2022-11-15T18:36:16.173Z,13.50
2022-11-15T18:38:43.234Z,13.50
2022-11-15T18:41:20.918Z,13.50
2022-11-15T18:43:50.884Z,13.50
2022-11-15T18:46:20.855Z,13.50
2022-11-15T18:48:50.419Z,13.40
2022-11-15T18:51:19.780Z,13.40
2022-11-15T18:53:47.026Z,13.50
2022-11-15T18:56:19.475Z,13.50
2022-11-15T18:58:48.517Z,13.50
2022-11-15T19:01:17.828Z,13.50
2022-11-15T19:03:51.705Z,13.50
2022-11-15T19:06:19.378Z,13.50
2022-11-15T19:08:48.064Z,13.40
2022-11-15T19:11:19.112Z,13.50
2022-11-15T19:13:48.380Z,13.40
2022-11-15T19:16:16.177Z,13.40
2022-11-15T19:18:43.258Z,13.40
2022-11-15T19:21:14.844Z,13.40
2022-11-15T19:23:43.127Z,13.40
2022-11-15T19:26:14.087Z,13.40
2022-11-15T19:28:41.554Z,13.40
2022-11-15T19:31:14.638Z,13.40
2022-11-15T19:33:42.796Z,13.50
2022-11-15T19:36:28.556Z,13.40
2022-11-15T19:38:56.167Z,13.40
2022-11-15T19:41:24.509Z,13.40
2022-11-15T19:43:51.942Z,13.40
2022-11-15T19:46:21.408Z,13.40
2022-11-15T19:48:48.358Z,13.40
2022-11-15T19:51:24.461Z,13.40
2022-11-15T19:53:57.376Z,13.40
2022-11-15T19:56:24.188Z,13.50
2022-11-15T19:58:52.523Z,13.40
2022-11-15T20:01:20.820Z,13.40
2022-11-15T20:03:49.969Z,13.40
2022-11-15T20:06:21.585Z,13.40
2022-11-15T20:08:48.618Z,13.40
2022-11-15T20:11:15.767Z,13.40
2022-11-15T20:13:43.161Z,13.50
2022-11-15T20:16:18.742Z,13.40
2022-11-15T20:18:46.055Z,13.50
2022-11-15T20:21:13.472Z,13.50
2022-11-15T20:23:40.555Z,13.40
2022-11-15T20:26:08.289Z,13.40
2022-11-15T20:28:36.951Z,13.50
2022-11-15T20:31:04.311Z,13.50
2022-11-15T20:33:31.062Z,13.50
2022-11-15T20:35:57.666Z,13.50
2022-11-15T20:38:24.649Z,13.50
2022-11-15T20:40:54.812Z,13.50
2022-11-15T20:43:25.582Z,13.50
2022-11-15T20:45:52.158Z,13.50
2022-11-15T20:48:18.827Z,13.40
2022-11-15T20:50:47.082Z,13.50
2022-11-15T20:53:19.111Z,13.50
2022-11-15T20:55:49.510Z,13.50
2022-11-15T20:58:17.164Z,13.50
2022-11-15T21:00:45.732Z,13.50
2022-11-15T21:03:14.061Z,13.50
2022-11-15T21:05:42.631Z,13.50
2022-11-15T21:08:10.429Z,13.50
2022-11-15T21:11:16.025Z,13.50
2022-11-15T21:13:42.629Z,13.50
2022-11-15T21:16:09.261Z,13.50
2022-11-15T21:18:36.169Z,13.50
2022-11-15T21:21:07.355Z,13.50
2022-11-15T21:23:34.016Z,13.50
2022-11-15T21:26:00.715Z,13.50
2022-11-15T21:28:27.371Z,13.50
2022-11-15T21:31:01.503Z,13.50
2022-11-15T21:33:28.495Z,13.50
2022-11-15T21:35:56.931Z,13.60
2022-11-15T21:38:24.368Z,13.50
2022-11-15T21:40:52.172Z,13.50
2022-11-15T21:43:19.736Z,13.60
2022-11-15T21:46:01.010Z,13.50
2022-11-15T21:48:29.085Z,13.50
2022-11-15T21:51:01.461Z,13.50
2022-11-15T21:53:29.298Z,13.60
2022-11-15T21:55:55.991Z,13.50
2022-11-15T21:58:23.288Z,13.60
2022-11-15T22:01:09.201Z,13.60
2022-11-15T22:03:36.511Z,13.60
2022-11-15T22:06:03.214Z,13.60
2022-11-15T22:08:31.616Z,13.60
2022-11-15T22:10:58.863Z,13.60
2022-11-15T22:13:26.628Z,13.60
2022-11-15T22:15:54.185Z,13.60
2022-11-15T22:18:26.375Z,13.60
2022-11-15T22:21:14.096Z,13.60
2022-11-15T22:23:41.552Z,13.60
2022-11-15T22:26:11.014Z,13.60
2022-11-15T22:28:38.142Z,13.60
2022-11-15T22:31:05.036Z,13.60
2022-11-15T22:33:33.659Z,13.60
2022-11-15T22:36:00.878Z,13.60
2022-11-15T22:38:28.375Z,13.70
2022-11-15T22:40:55.834Z,13.60
2022-11-15T22:43:24.584Z,13.70
2022-11-15T22:45:56.240Z,13.70
2022-11-15T22:48:25.946Z,13.70
2022-11-15T22:50:53.520Z,13.70
2022-11-15T22:53:20.939Z,13.70
2022-11-15T22:55:59.349Z,13.70
2022-11-15T22:58:28.223Z,13.70
2022-11-15T23:00:57.525Z,13.70
2022-11-15T23:03:25.556Z,13.70
2022-11-15T23:05:52.363Z,13.70
2022-11-15T23:08:20.179Z,13.70
2022-11-15T23:11:05.400Z,13.70
2022-11-15T23:13:33.091Z,13.70
2022-11-15T23:16:25.488Z,13.70
2022-11-15T23:19:00.130Z,13.70
2022-11-15T23:21:57.120Z,13.70
2022-11-15T23:24:24.346Z,13.70
2022-11-15T23:26:53.653Z,13.70
2022-11-15T23:29:22.877Z,13.70
2022-11-15T23:32:08.603Z,13.70
2022-11-15T23:34:38.842Z,13.70
2022-11-15T23:37:06.559Z,13.70
2022-11-15T23:39:33.300Z,13.70
2022-11-15T23:42:02.100Z,13.70
2022-11-15T23:44:32.855Z,13.70
2022-11-15T23:46:59.731Z,13.70
2022-11-15T23:49:26.430Z,13.70
2022-11-15T23:51:53.293Z,13.70
2022-11-15T23:54:20.038Z,13.70
2022-11-15T23:56:46.680Z,13.70
2022-11-15T23:59:13.636Z,13.70
